createdAt,value
2022-09-13T00:00:56.803Z,7.68
2022-09-13T00:06:08.706Z,9.00
2022-09-13T00:11:19.280Z,9.02
2022-09-13T00:16:25.782Z,8.23
2022-09-13T00:21:31.220Z,6.72
2022-09-13T00:26:35.277Z,8.55
2022-09-13T00:31:39.385Z,9.27
2022-09-13T00:36:44.941Z,7.87
2022-09-13T00:41:49.171Z,6.57
2022-09-13T00:46:54.617Z,7.20
2022-09-13T00:52:05.671Z,7.40
2022-09-13T00:57:13.114Z,8.23
2022-09-13T01:02:17.770Z,7.88
2022-09-13T01:12:34.780Z,7.38
2022-09-13T01:17:41.062Z,7.88
2022-09-13T01:23:16.674Z,8.90
2022-09-13T01:29:04.671Z,8.10
2022-09-13T01:34:28.365Z,7.13
2022-09-13T01:39:48.844Z,8.65
2022-09-13T01:45:06.375Z,8.25
2022-09-13T01:50:19.174Z,7.55
2022-09-13T01:55:34.020Z,8.00
2022-09-13T02:00:43.871Z,7.35
2022-09-13T02:05:53.699Z,9.63
2022-09-13T02:11:04.888Z,8.02
2022-09-13T02:16:15.308Z,9.73
2022-09-13T02:21:25.980Z,9.25
2022-09-13T02:26:32.300Z,7.65
2022-09-13T02:31:41.535Z,8.27
2022-09-13T02:36:50.766Z,12.30
2022-09-13T02:41:58.826Z,11.18
2022-09-13T02:47:14.130Z,11.30
2022-09-13T02:52:26.183Z,11.77
2022-09-13T02:57:38.719Z,13.68
2022-09-13T03:02:45.497Z,11.52
2022-09-13T03:07:51.525Z,13.43
2022-09-13T03:13:38.844Z,10.45
2022-09-13T03:18:55.523Z,11.77
2022-09-13T03:24:10.532Z,12.27
2022-09-13T03:29:32.261Z,12.75
2022-09-13T03:34:44.563Z,13.75
2022-09-13T03:39:56.356Z,12.43
2022-09-13T03:45:03.566Z,13.68
2022-09-13T03:50:11.552Z,14.55
2022-09-13T03:55:16.331Z,12.95
2022-09-13T04:05:24.292Z,13.33
2022-09-13T04:10:32.159Z,11.73
2022-09-13T04:15:36.263Z,12.30
2022-09-13T04:20:40.694Z,11.67
2022-09-13T04:25:47.389Z,11.35
2022-09-13T04:30:52.761Z,11.48
2022-09-13T04:36:01.023Z,11.10
2022-09-13T04:41:06.736Z,9.88
2022-09-13T04:46:11.125Z,10.88
2022-09-13T04:51:15.797Z,8.90
2022-09-13T04:56:22.814Z,11.85
2022-09-13T05:01:28.082Z,10.07
2022-09-13T05:06:31.847Z,11.38
2022-09-13T05:11:37.626Z,11.00
2022-09-13T05:16:41.882Z,9.13
2022-09-13T05:21:46.146Z,10.93
2022-09-13T05:26:51.581Z,10.13
2022-09-13T05:31:55.673Z,11.55
2022-09-13T05:37:00.697Z,9.70
2022-09-13T05:42:06.675Z,13.52
2022-09-13T05:47:11.610Z,11.00
2022-09-13T05:52:15.804Z,11.77
2022-09-13T05:57:21.806Z,12.32
2022-09-13T06:02:25.267Z,11.02
2022-09-13T06:07:28.959Z,10.82
2022-09-13T06:12:33.648Z,9.27
2022-09-13T06:22:41.369Z,10.13
2022-09-13T06:27:47.609Z,12.48
2022-09-13T06:32:52.980Z,11.95
2022-09-13T06:37:59.272Z,9.90
2022-09-13T06:43:04.032Z,11.52
2022-09-13T06:53:11.569Z,8.95
2022-09-13T06:58:16.979Z,7.85
2022-09-13T07:03:20.491Z,10.73
2022-09-13T07:08:24.629Z,8.13
2022-09-13T07:13:29.383Z,9.80
2022-09-13T07:18:33.864Z,8.52
2022-09-13T07:23:38.763Z,6.50
2022-09-13T07:28:45.994Z,10.00
2022-09-13T07:33:54.155Z,5.38
2022-09-13T07:38:59.368Z,6.45
2022-09-13T07:44:06.623Z,7.78
2022-09-13T07:49:11.480Z,6.90
2022-09-13T07:54:16.644Z,6.80
2022-09-13T07:59:23.432Z,5.80
2022-09-13T08:04:28.283Z,6.90
2022-09-13T08:09:32.327Z,7.20
2022-09-13T08:14:37.279Z,8.02
2022-09-13T08:19:41.406Z,6.38
2022-09-13T08:24:44.734Z,7.07
2022-09-13T08:29:50.230Z,4.73
2022-09-13T08:34:53.699Z,3.80
2022-09-13T08:39:57.754Z,5.25
2022-09-13T08:50:16.423Z,5.13
2022-09-13T08:55:35.494Z,6.93
2022-09-13T09:00:45.322Z,4.10
2022-09-13T09:05:50.321Z,4.68
2022-09-13T09:10:57.922Z,6.40
2022-09-13T09:16:08.054Z,5.93
2022-09-13T09:21:23.115Z,7.35
2022-09-13T09:26:30.032Z,5.05
2022-09-13T09:31:42.327Z,8.15
2022-09-13T09:36:50.382Z,4.47
2022-09-13T09:41:58.456Z,5.85
2022-09-13T09:47:12.747Z,7.82
2022-09-13T09:52:19.908Z,5.15
2022-09-13T09:57:24.131Z,5.80
2022-09-13T10:02:28.970Z,7.50
2022-09-13T10:07:35.884Z,6.65
2022-09-13T10:12:41.629Z,5.07
2022-09-13T10:18:04.485Z,4.22
2022-09-13T10:23:16.554Z,6.70
2022-09-13T10:28:21.703Z,5.45
2022-09-13T10:33:30.767Z,6.25
2022-09-13T10:38:41.857Z,4.05
2022-09-13T10:43:47.535Z,4.20
2022-09-13T10:48:58.111Z,6.75
2022-09-13T10:54:20.187Z,7.13
2022-09-13T10:59:27.731Z,4.13
2022-09-13T11:05:07.032Z,5.25
2022-09-13T11:10:19.016Z,6.00
2022-09-13T11:15:37.278Z,3.83
2022-09-13T11:20:50.791Z,4.53
2022-09-13T11:26:12.672Z,5.53
2022-09-13T11:31:32.645Z,7.35
2022-09-13T11:37:03.226Z,4.45
2022-09-13T11:42:19.254Z,6.32
2022-09-13T11:47:34.522Z,7.70
2022-09-13T11:52:51.431Z,5.30
2022-09-13T11:57:58.999Z,5.78
2022-09-13T12:03:13.499Z,5.38
2022-09-13T12:08:23.852Z,5.00
2022-09-13T12:13:32.664Z,4.43
2022-09-13T12:18:41.163Z,5.18
2022-09-13T12:23:50.502Z,5.90
2022-09-13T12:29:00.218Z,5.78
2022-09-13T12:34:09.013Z,4.47
2022-09-13T12:39:44.059Z,9.13
2022-09-13T12:50:42.484Z,8.30
2022-09-13T12:56:02.399Z,4.97
2022-09-13T13:01:17.097Z,8.05
2022-09-13T13:11:41.998Z,6.28
2022-09-13T13:16:49.792Z,6.97
2022-09-13T13:21:55.183Z,8.20
2022-09-13T13:27:00.875Z,6.18
2022-09-13T13:32:14.143Z,6.93
2022-09-13T13:37:35.574Z,6.07
2022-09-13T13:42:39.802Z,7.32
2022-09-13T13:47:57.204Z,4.15
2022-09-13T13:53:20.948Z,7.43
2022-09-13T13:58:47.990Z,4.93
2022-09-13T14:04:07.347Z,5.45
2022-09-13T14:09:33.388Z,3.40
2022-09-13T14:14:51.244Z,4.05
2022-09-13T14:20:02.005Z,4.78
2022-09-13T14:25:24.470Z,4.28
2022-09-13T14:30:34.079Z,6.50
2022-09-13T14:35:41.488Z,4.20
2022-09-13T14:40:50.897Z,3.63
2022-09-13T14:46:01.467Z,3.17
2022-09-13T14:51:16.147Z,5.20
2022-09-13T14:56:28.726Z,3.88
2022-09-13T15:01:36.860Z,4.30
2022-09-13T15:06:44.312Z,4.07
2022-09-13T15:12:00.465Z,6.50
2022-09-13T15:17:11.108Z,4.78
2022-09-13T15:22:28.005Z,5.15
2022-09-13T15:27:35.414Z,6.93
2022-09-13T15:32:43.502Z,4.63
2022-09-13T15:37:49.275Z,3.63
2022-09-13T15:42:53.845Z,11.95
2022-09-13T15:53:03.298Z,5.18
2022-09-13T15:58:07.728Z,4.15
2022-09-13T16:03:11.829Z,6.15
2022-09-13T16:08:17.321Z,5.70
2022-09-13T16:13:21.566Z,9.63
2022-09-13T16:18:26.818Z,5.85
2022-09-13T16:23:31.836Z,5.22
2022-09-13T16:28:36.721Z,5.32
2022-09-13T16:33:40.932Z,4.82
2022-09-13T16:43:50.756Z,4.07
2022-09-13T16:48:56.155Z,6.83
2022-09-13T16:54:02.108Z,4.22
2022-09-13T16:59:06.694Z,8.23
2022-09-13T17:04:11.524Z,6.43
2022-09-13T17:09:17.756Z,5.53
2022-09-13T17:14:22.202Z,6.70
2022-09-13T17:19:28.416Z,6.35
2022-09-13T17:24:41.532Z,7.28
2022-09-13T17:29:46.755Z,6.88
2022-09-13T17:34:52.363Z,5.30
2022-09-13T17:39:58.746Z,4.57
2022-09-13T17:45:02.273Z,5.28
2022-09-13T17:50:08.854Z,6.35
2022-09-13T17:55:15.091Z,4.72
2022-09-13T18:00:21.024Z,6.22
2022-09-13T18:05:25.385Z,6.68
2022-09-13T18:10:53.477Z,6.13
2022-09-13T18:16:03.259Z,6.30
2022-09-13T18:21:08.785Z,5.65
2022-09-13T18:26:16.931Z,4.80
2022-09-13T18:31:21.345Z,5.43
2022-09-13T18:36:26.860Z,6.43
2022-09-13T18:41:36.228Z,5.43
2022-09-13T18:46:42.856Z,4.90
2022-09-13T18:51:46.885Z,7.57
2022-09-13T18:56:52.652Z,5.03
2022-09-13T19:01:57.457Z,5.10
2022-09-13T19:07:02.504Z,5.13
2022-09-13T19:17:13.198Z,4.38
2022-09-13T19:22:17.455Z,6.68
2022-09-13T19:27:23.363Z,5.90
2022-09-13T19:32:26.721Z,7.35
2022-09-13T19:37:30.938Z,8.85
2022-09-13T19:42:35.697Z,8.90
2022-09-13T19:53:02.939Z,6.03
2022-09-13T19:58:08.356Z,5.88
2022-09-13T20:03:11.730Z,5.15
2022-09-13T20:08:15.121Z,6.25
2022-09-13T20:13:20.152Z,7.88
2022-09-13T20:18:24.267Z,5.40
2022-09-13T20:23:27.845Z,5.03
2022-09-13T20:28:34.127Z,4.78
2022-09-13T20:33:40.067Z,6.68
2022-09-13T20:38:44.513Z,5.07
2022-09-13T20:43:49.854Z,6.07
2022-09-13T20:48:53.977Z,6.63
2022-09-13T20:54:00.527Z,4.80
2022-09-13T20:59:06.629Z,5.10
2022-09-13T21:04:11.293Z,5.20
2022-09-13T21:09:15.357Z,9.38
2022-09-13T21:14:21.991Z,4.73
2022-09-13T21:19:27.499Z,5.20
2022-09-13T21:24:31.664Z,4.85
2022-09-13T21:29:37.110Z,5.53
2022-09-13T21:34:40.398Z,4.80
2022-09-13T21:39:44.548Z,4.53
2022-09-13T21:44:49.340Z,5.85
2022-09-13T21:49:53.834Z,6.43
2022-09-13T21:54:57.194Z,5.05
2022-09-13T22:00:02.859Z,6.40
2022-09-13T22:05:08.221Z,5.28
2022-09-13T22:10:12.401Z,6.47
2022-09-13T22:15:18.225Z,8.45
2022-09-13T22:20:22.359Z,6.53
2022-09-13T22:25:26.429Z,5.95
2022-09-13T22:30:32.610Z,5.90
2022-09-13T22:35:36.644Z,5.82
2022-09-13T22:40:40.690Z,6.63
2022-09-13T22:45:46.258Z,7.05
2022-09-13T22:50:54.167Z,8.05
2022-09-13T22:55:58.226Z,9.85
2022-09-13T23:01:08.920Z,6.90
2022-09-13T23:06:13.983Z,7.68
2022-09-13T23:11:20.444Z,9.40
2022-09-13T23:16:28.572Z,8.68
2022-09-13T23:21:35.277Z,11.30
2022-09-13T23:26:40.193Z,7.18
2022-09-13T23:31:47.210Z,9.98
2022-09-13T23:36:52.097Z,8.32
2022-09-13T23:41:56.281Z,7.55
2022-09-13T23:47:01.735Z,8.07
2022-09-13T23:52:05.861Z,8.85
2022-09-13T23:57:09.915Z,8.57
